createdAt,value
2022-11-09T00:01:27.932Z,12.00
2022-11-09T00:03:32.840Z,12.00
2022-11-09T00:05:35.238Z,12.00
2022-11-09T00:07:37.673Z,12.00
2022-11-09T00:09:40.236Z,12.00
2022-11-09T00:11:43.103Z,12.60
2022-11-09T00:13:46.087Z,12.40
2022-11-09T00:15:48.381Z,12.00
2022-11-09T00:17:50.969Z,12.00
2022-11-09T00:19:55.989Z,12.20
2022-11-09T00:21:58.345Z,12.00
2022-11-09T00:24:00.693Z,12.00
2022-11-09T00:26:04.023Z,12.00
2022-11-09T00:28:06.371Z,12.10
2022-11-09T00:30:13.063Z,12.10
2022-11-09T00:32:15.377Z,12.10
2022-11-09T00:34:19.134Z,12.10
2022-11-09T00:36:26.082Z,12.10
2022-11-09T00:38:28.325Z,12.40
2022-11-09T00:40:32.851Z,12.10
2022-11-09T00:42:35.146Z,12.40
2022-11-09T00:44:37.481Z,12.10
2022-11-09T00:46:40.055Z,12.10
2022-11-09T00:48:42.415Z,12.10
2022-11-09T00:50:50.045Z,12.30
2022-11-09T00:52:55.854Z,12.10
2022-11-09T00:54:58.388Z,12.10
2022-11-09T00:57:00.693Z,12.10
2022-11-09T00:59:04.805Z,12.10
2022-11-09T01:01:11.308Z,12.10
2022-11-09T01:03:13.914Z,12.10
2022-11-09T01:05:18.220Z,12.10
2022-11-09T01:07:20.700Z,12.00
2022-11-09T01:09:25.854Z,12.10
2022-11-09T01:11:30.002Z,12.10
2022-11-09T01:13:33.463Z,12.00
2022-11-09T01:15:39.830Z,12.90
2022-11-09T01:17:42.253Z,12.00
2022-11-09T01:19:44.771Z,12.00
2022-11-09T01:21:47.238Z,12.00
2022-11-09T01:23:49.635Z,12.70
2022-11-09T01:26:01.357Z,12.00
2022-11-09T01:28:07.528Z,12.60
2022-11-09T01:30:11.096Z,11.90
2022-11-09T01:32:13.421Z,11.90
2022-11-09T01:34:17.698Z,12.00
2022-11-09T01:36:23.739Z,12.00
2022-11-09T01:38:25.992Z,12.00
2022-11-09T01:40:28.749Z,12.00
2022-11-09T01:42:37.132Z,12.00
2022-11-09T01:44:39.366Z,12.00
2022-11-09T01:46:51.553Z,12.00
2022-11-09T01:49:05.010Z,12.00
2022-11-09T01:51:11.016Z,12.10
2022-11-09T01:53:19.169Z,12.10
2022-11-09T01:55:25.015Z,12.10
2022-11-09T01:57:36.603Z,12.20
2022-11-09T01:59:42.944Z,12.20
2022-11-09T02:01:48.848Z,12.30
2022-11-09T02:03:58.218Z,12.30
2022-11-09T02:06:03.796Z,12.30
2022-11-09T02:08:07.962Z,12.30
2022-11-09T02:10:16.900Z,12.30
2022-11-09T02:12:20.870Z,12.30
2022-11-09T02:14:28.011Z,12.50
2022-11-09T02:16:31.589Z,12.30
2022-11-09T02:18:34.951Z,12.30
2022-11-09T02:20:50.150Z,12.30
2022-11-09T02:22:52.620Z,12.30
2022-11-09T02:24:56.862Z,12.30
2022-11-09T02:26:59.850Z,12.40
2022-11-09T02:29:06.211Z,12.40
2022-11-09T02:31:13.288Z,12.20
2022-11-09T02:33:17.071Z,12.20
2022-11-09T02:35:20.419Z,12.20
2022-11-09T02:37:33.250Z,12.20
2022-11-09T02:39:35.990Z,12.20
2022-11-09T02:41:42.995Z,12.20
2022-11-09T02:43:46.670Z,12.10
2022-11-09T02:45:49.786Z,12.00
2022-11-09T02:47:52.527Z,12.10
2022-11-09T02:49:57.936Z,12.10
2022-11-09T02:52:01.636Z,12.30
2022-11-09T02:54:08.992Z,12.70
2022-11-09T02:56:11.737Z,12.00
2022-11-09T02:58:14.814Z,12.00
2022-11-09T03:00:17.593Z,12.10
2022-11-09T03:02:20.433Z,12.00
2022-11-09T03:04:22.969Z,12.00
2022-11-09T03:06:35.037Z,12.40
2022-11-09T03:08:41.885Z,12.10
2022-11-09T03:10:47.073Z,12.30
2022-11-09T03:12:49.648Z,12.00
2022-11-09T03:14:52.274Z,12.80
2022-11-09T03:16:54.871Z,12.00
2022-11-09T03:18:58.194Z,12.10
2022-11-09T03:21:02.021Z,12.00
2022-11-09T03:23:04.549Z,12.00
2022-11-09T03:25:11.573Z,12.00
2022-11-09T03:27:17.464Z,12.00
2022-11-09T03:29:22.724Z,12.10
2022-11-09T03:31:25.238Z,12.00
2022-11-09T03:33:28.963Z,12.00
2022-11-09T03:35:32.332Z,12.00
2022-11-09T03:37:36.021Z,12.00
2022-11-09T03:39:41.700Z,12.00
2022-11-09T03:41:49.189Z,12.00
2022-11-09T03:43:54.421Z,12.00
2022-11-09T03:45:57.107Z,12.00
2022-11-09T03:48:00.615Z,12.20
2022-11-09T03:50:03.105Z,12.40
2022-11-09T03:52:05.446Z,12.00
2022-11-09T03:54:08.990Z,12.00
2022-11-09T03:56:14.679Z,12.00
2022-11-09T03:58:18.292Z,11.90
2022-11-09T04:00:24.384Z,11.90
2022-11-09T04:02:30.037Z,11.90
2022-11-09T04:04:35.431Z,11.90
2022-11-09T04:06:37.869Z,11.90
2022-11-09T04:08:40.250Z,12.00
2022-11-09T04:10:42.655Z,11.90
2022-11-09T04:12:45.873Z,11.90
2022-11-09T04:14:55.114Z,11.90
2022-11-09T04:17:00.646Z,11.90
2022-11-09T04:19:03.093Z,11.90
2022-11-09T04:21:05.520Z,11.90
2022-11-09T04:23:11.048Z,11.80
2022-11-09T04:25:13.586Z,12.30
2022-11-09T04:27:15.932Z,11.80
2022-11-09T04:29:18.367Z,12.40
2022-11-09T04:31:24.239Z,11.80
2022-11-09T04:33:32.011Z,11.70
2022-11-09T04:35:34.970Z,11.70
2022-11-09T04:37:37.235Z,11.70
2022-11-09T04:39:39.553Z,11.70
2022-11-09T04:41:44.537Z,11.70
2022-11-09T04:43:46.867Z,12.00
2022-11-09T04:45:49.636Z,11.60
2022-11-09T04:47:51.909Z,11.70
2022-11-09T04:49:56.812Z,11.70
2022-11-09T04:51:59.072Z,11.70
2022-11-09T04:54:01.450Z,11.70
2022-11-09T04:56:05.916Z,11.80
2022-11-09T04:58:08.934Z,11.70
2022-11-09T05:00:12.125Z,11.70
2022-11-09T05:02:14.484Z,11.80
2022-11-09T05:04:16.894Z,11.80
2022-11-09T05:06:37.038Z,11.80
2022-11-09T05:08:39.353Z,11.80
2022-11-09T05:10:41.849Z,11.80
2022-11-09T05:12:46.001Z,11.80
2022-11-09T05:14:48.499Z,11.80
2022-11-09T05:16:50.802Z,11.80
2022-11-09T05:18:53.372Z,11.80
2022-11-09T05:20:59.042Z,11.80
2022-11-09T05:23:23.240Z,11.80
2022-11-09T05:25:26.958Z,11.80
2022-11-09T05:27:29.397Z,11.80
2022-11-09T05:29:31.789Z,11.80
2022-11-09T05:31:34.711Z,12.50
2022-11-09T05:33:37.005Z,11.80
2022-11-09T05:35:39.297Z,11.90
2022-11-09T05:37:41.741Z,11.80
2022-11-09T05:39:47.049Z,11.90
2022-11-09T05:41:49.373Z,12.00
2022-11-09T05:43:51.832Z,12.60
2022-11-09T05:45:54.401Z,11.90
2022-11-09T05:47:56.689Z,11.90
2022-11-09T05:49:59.124Z,11.90
2022-11-09T05:52:01.507Z,11.90
2022-11-09T05:54:04.091Z,11.90
2022-11-09T05:56:13.725Z,11.90
2022-11-09T05:58:16.970Z,12.20
2022-11-09T06:00:20.708Z,11.80
2022-11-09T06:02:23.743Z,11.80
2022-11-09T06:04:26.149Z,11.80
2022-11-09T06:06:30.040Z,11.80
2022-11-09T06:08:32.715Z,11.80
2022-11-09T06:10:35.382Z,11.80
2022-11-09T06:12:43.277Z,11.90
2022-11-09T06:14:45.725Z,11.80
2022-11-09T06:16:48.461Z,11.80
2022-11-09T06:18:51.155Z,11.80
2022-11-09T06:20:55.080Z,11.80
2022-11-09T06:23:03.816Z,11.70
2022-11-09T06:25:07.428Z,11.70
2022-11-09T06:27:13.110Z,11.70
2022-11-09T06:29:18.136Z,11.70
2022-11-09T06:31:20.820Z,11.70
2022-11-09T06:33:23.395Z,11.50
2022-11-09T06:35:25.959Z,11.70
2022-11-09T06:37:28.311Z,11.70
2022-11-09T06:39:30.716Z,11.60
2022-11-09T06:41:33.046Z,11.70
2022-11-09T06:43:36.857Z,11.60
2022-11-09T06:45:42.031Z,12.00
2022-11-09T06:47:44.431Z,12.60
2022-11-09T06:49:46.846Z,11.60
2022-11-09T06:51:54.985Z,11.60
2022-11-09T06:53:57.334Z,11.60
2022-11-09T06:56:00.157Z,11.60
2022-11-09T06:58:06.554Z,11.50
2022-11-09T07:00:11.781Z,11.60
2022-11-09T07:02:20.754Z,11.50
2022-11-09T07:04:23.261Z,11.50
2022-11-09T07:06:28.151Z,11.60
2022-11-09T07:08:30.492Z,11.60
2022-11-09T07:10:32.957Z,12.30
2022-11-09T07:12:35.779Z,11.60
2022-11-09T07:14:38.044Z,11.60
2022-11-09T07:16:40.340Z,11.50
2022-11-09T07:18:45.896Z,11.60
2022-11-09T07:20:48.194Z,12.30
2022-11-09T07:22:52.591Z,11.60
2022-11-09T07:24:55.854Z,11.60
2022-11-09T07:26:58.220Z,11.60
2022-11-09T07:29:03.324Z,11.60
2022-11-09T07:31:06.202Z,11.90
2022-11-09T07:33:14.311Z,11.60
2022-11-09T07:35:19.264Z,11.60
2022-11-09T07:37:21.549Z,11.60
2022-11-09T07:39:23.856Z,11.70
2022-11-09T07:41:29.460Z,11.70
2022-11-09T07:43:35.742Z,11.70
2022-11-09T07:45:39.743Z,11.70
2022-11-09T07:47:42.091Z,11.80
2022-11-09T07:49:47.142Z,11.80
2022-11-09T07:51:52.078Z,11.70
2022-11-09T07:53:54.326Z,11.80
2022-11-09T07:55:57.704Z,11.80
2022-11-09T07:58:03.915Z,11.80
2022-11-09T08:00:09.077Z,11.80
2022-11-09T08:02:14.568Z,11.90
2022-11-09T08:04:19.555Z,11.90
2022-11-09T08:06:24.317Z,11.90
2022-11-09T08:08:30.401Z,11.90
2022-11-09T08:10:34.087Z,12.00
2022-11-09T08:12:37.396Z,12.00
2022-11-09T08:14:39.992Z,12.10
2022-11-09T08:16:42.310Z,12.10
2022-11-09T08:18:44.966Z,12.20
2022-11-09T08:20:47.486Z,12.20
2022-11-09T08:23:02.339Z,12.20
2022-11-09T08:25:09.660Z,12.20
2022-11-09T08:27:12.020Z,12.30
2022-11-09T08:29:15.726Z,12.30
2022-11-09T08:31:18.706Z,12.30
2022-11-09T08:33:21.020Z,12.40
2022-11-09T08:35:24.715Z,12.40
2022-11-09T08:37:27.107Z,12.40
2022-11-09T08:39:29.541Z,12.50
2022-11-09T08:41:34.771Z,12.50
2022-11-09T08:43:37.181Z,12.50
2022-11-09T08:45:42.149Z,12.60
2022-11-09T08:47:46.349Z,12.60
2022-11-09T08:49:48.631Z,12.60
2022-11-09T08:51:54.150Z,12.70
2022-11-09T08:53:58.288Z,12.70
2022-11-09T08:56:00.748Z,12.70
2022-11-09T08:58:11.809Z,13.40
2022-11-09T09:00:16.330Z,12.80
2022-11-09T09:02:18.722Z,12.90
2022-11-09T09:04:21.041Z,12.90
2022-11-09T09:06:28.171Z,13.00
2022-11-09T09:08:35.026Z,13.00
2022-11-09T09:10:37.621Z,13.00
2022-11-09T09:12:40.298Z,13.00
2022-11-09T09:14:45.313Z,13.10
2022-11-09T09:16:48.152Z,13.10
2022-11-09T09:18:50.895Z,13.90
2022-11-09T09:20:53.364Z,14.10
2022-11-09T09:22:59.029Z,13.40
2022-11-09T09:25:04.822Z,13.30
2022-11-09T09:27:11.483Z,13.30
2022-11-09T09:29:14.442Z,13.40
2022-11-09T09:31:19.411Z,13.40
2022-11-09T09:33:22.841Z,13.50
2022-11-09T09:35:25.167Z,13.80
2022-11-09T09:37:32.209Z,13.50
2022-11-09T09:39:36.485Z,13.50
2022-11-09T09:41:40.146Z,13.50
2022-11-09T09:43:44.866Z,14.10
2022-11-09T09:45:54.955Z,13.50
2022-11-09T09:48:04.548Z,13.60
2022-11-09T09:50:12.781Z,13.70
2022-11-09T09:52:36.504Z,13.60
2022-11-09T09:54:43.604Z,13.60
2022-11-09T09:56:50.708Z,13.70
2022-11-09T09:58:58.859Z,13.70
2022-11-09T10:01:07.500Z,13.70
2022-11-09T10:03:18.339Z,13.80
2022-11-09T10:05:28.296Z,13.90
2022-11-09T10:07:38.896Z,13.90
2022-11-09T10:09:58.392Z,14.00
2022-11-09T10:12:10.005Z,14.00
2022-11-09T10:14:40.484Z,14.00
2022-11-09T10:16:49.891Z,14.10
2022-11-09T10:19:19.231Z,14.10
2022-11-09T10:21:36.246Z,14.40
2022-11-09T10:24:03.023Z,14.00
2022-11-09T10:26:16.835Z,14.00
2022-11-09T10:28:23.241Z,13.90
2022-11-09T10:30:29.109Z,13.90
2022-11-09T10:32:33.203Z,13.90
2022-11-09T10:34:44.069Z,14.00
2022-11-09T10:36:53.997Z,14.10
2022-11-09T10:39:00.749Z,14.10
2022-11-09T10:41:26.270Z,14.10
2022-11-09T10:43:49.397Z,13.90
2022-11-09T10:46:10.663Z,14.10
2022-11-09T10:48:37.212Z,14.10
2022-11-09T10:51:01.173Z,14.00
2022-11-09T10:53:23.735Z,14.00
2022-11-09T10:55:52.103Z,14.00
2022-11-09T10:58:24.236Z,14.50
2022-11-09T11:00:58.288Z,14.00
2022-11-09T11:03:22.516Z,13.90
2022-11-09T11:05:43.523Z,13.90
2022-11-09T11:08:24.436Z,13.90
2022-11-09T11:10:45.472Z,13.90
2022-11-09T11:13:26.219Z,13.90
2022-11-09T11:15:47.959Z,14.00
2022-11-09T11:18:16.940Z,13.90
2022-11-09T11:20:42.063Z,13.90
2022-11-09T11:23:11.410Z,13.90
2022-11-09T11:25:38.669Z,13.30
2022-11-09T11:28:11.184Z,13.90
2022-11-09T11:30:37.488Z,13.90
2022-11-09T11:32:59.022Z,13.90
2022-11-09T11:35:29.287Z,13.90
2022-11-09T11:38:04.773Z,13.90
2022-11-09T11:40:30.641Z,13.90
2022-11-09T11:43:31.378Z,13.90
2022-11-09T11:46:03.962Z,13.80
2022-11-09T11:48:51.420Z,13.80
2022-11-09T11:51:23.917Z,13.70
2022-11-09T11:54:06.988Z,14.30
2022-11-09T11:56:35.111Z,13.70
2022-11-09T11:59:28.823Z,14.20
2022-11-09T12:02:09.715Z,13.70
2022-11-09T12:04:55.670Z,13.80
2022-11-09T12:07:28.290Z,13.90
2022-11-09T12:10:05.878Z,14.00
2022-11-09T12:12:38.292Z,14.00
2022-11-09T12:15:17.793Z,14.00
2022-11-09T12:17:52.240Z,13.90
2022-11-09T12:20:25.351Z,13.90
2022-11-09T12:22:56.257Z,13.80
2022-11-09T12:25:22.372Z,14.10
2022-11-09T12:28:05.178Z,13.80
2022-11-09T12:30:32.559Z,13.80
2022-11-09T12:33:01.606Z,13.80
2022-11-09T12:35:29.469Z,13.90
2022-11-09T12:37:56.952Z,14.10
2022-11-09T12:40:25.913Z,13.90
2022-11-09T12:42:52.242Z,13.90
2022-11-09T12:45:22.764Z,13.70
2022-11-09T12:47:45.141Z,14.00
2022-11-09T12:50:13.570Z,14.00
2022-11-09T12:52:37.313Z,14.10
2022-11-09T12:55:01.288Z,14.10
2022-11-09T12:57:24.381Z,14.20
2022-11-09T12:59:48.390Z,14.40
2022-11-09T13:02:25.235Z,13.60
2022-11-09T13:04:56.686Z,13.90
2022-11-09T13:07:41.713Z,13.80
2022-11-09T13:10:04.089Z,13.50
2022-11-09T13:12:34.961Z,13.50
2022-11-09T13:14:56.033Z,13.40
2022-11-09T13:17:47.067Z,13.30
2022-11-09T13:20:54.678Z,13.00
2022-11-09T13:26:45.666Z,12.90
2022-11-09T13:29:21.297Z,12.80
2022-11-09T13:32:20.989Z,12.80
2022-11-09T13:34:48.259Z,12.80
2022-11-09T13:37:39.943Z,12.80
2022-11-09T13:40:18.113Z,12.80
2022-11-09T13:42:38.910Z,12.80
2022-11-09T13:45:34.754Z,12.80
2022-11-09T13:47:56.295Z,12.80
2022-11-09T13:50:20.148Z,12.90
2022-11-09T13:52:50.156Z,12.90
2022-11-09T13:55:26.225Z,13.00
2022-11-09T13:57:47.559Z,13.00
2022-11-09T14:00:18.984Z,13.00
2022-11-09T14:02:40.169Z,13.10
2022-11-09T14:05:03.787Z,13.10
2022-11-09T14:07:27.762Z,13.10
2022-11-09T14:09:56.833Z,13.10
2022-11-09T14:12:42.143Z,13.00
2022-11-09T14:15:26.553Z,13.00
2022-11-09T14:17:56.367Z,12.90
2022-11-09T14:20:27.556Z,12.90
2022-11-09T14:22:48.626Z,12.90
2022-11-09T14:25:22.951Z,12.90
2022-11-09T14:27:57.053Z,12.80
2022-11-09T14:30:22.529Z,12.80
2022-11-09T14:32:49.117Z,12.80
2022-11-09T14:35:21.427Z,12.80
2022-11-09T14:37:48.478Z,12.70
2022-11-09T14:40:17.249Z,12.70
2022-11-09T14:42:42.009Z,12.80
2022-11-09T14:45:15.912Z,12.70
2022-11-09T14:47:38.953Z,12.70
2022-11-09T14:50:00.308Z,12.70
2022-11-09T14:52:26.382Z,13.10
2022-11-09T14:54:49.307Z,12.50
2022-11-09T14:57:14.067Z,12.40
2022-11-09T14:59:36.496Z,12.30
2022-11-09T15:02:06.020Z,12.30
2022-11-09T15:04:27.604Z,12.20
2022-11-09T15:06:51.261Z,12.20
2022-11-09T15:09:19.581Z,12.20
2022-11-09T15:11:41.332Z,12.10
2022-11-09T15:14:12.431Z,12.00
2022-11-09T15:16:33.509Z,12.00
2022-11-09T15:18:57.085Z,11.90
2022-11-09T15:21:19.855Z,11.90
2022-11-09T15:23:42.324Z,11.80
2022-11-09T15:26:02.947Z,11.80
2022-11-09T15:28:26.308Z,11.70
2022-11-09T15:30:49.577Z,11.70
2022-11-09T15:33:21.470Z,11.70
2022-11-09T15:35:52.125Z,11.70
2022-11-09T15:38:29.775Z,11.60
2022-11-09T15:40:50.787Z,11.60
2022-11-09T15:43:11.453Z,11.60
2022-11-09T15:45:32.472Z,11.60
2022-11-09T15:47:55.874Z,11.60
2022-11-09T15:50:20.060Z,11.50
2022-11-09T15:52:44.898Z,11.50
2022-11-09T15:55:06.452Z,11.50
2022-11-09T15:57:27.464Z,11.50
2022-11-09T15:59:49.963Z,11.50
2022-11-09T16:02:12.201Z,11.50
2022-11-09T16:04:33.400Z,11.50
2022-11-09T16:06:54.916Z,11.40
2022-11-09T16:09:18.659Z,11.50
2022-11-09T16:11:39.763Z,11.50
2022-11-09T16:14:04.264Z,11.50
2022-11-09T16:16:24.981Z,11.40
2022-11-09T16:18:46.913Z,11.40
2022-11-09T16:21:12.150Z,11.40
2022-11-09T16:23:32.933Z,11.40
2022-11-09T16:25:56.655Z,11.40
2022-11-09T16:28:19.062Z,11.40
2022-11-09T16:30:45.483Z,11.30
2022-11-09T16:33:09.712Z,11.30
2022-11-09T16:35:30.344Z,11.30
2022-11-09T16:37:55.006Z,11.30
2022-11-09T16:40:19.678Z,11.20
2022-11-09T16:42:43.658Z,11.20
2022-11-09T16:45:09.166Z,11.20
2022-11-09T16:47:29.752Z,11.20
2022-11-09T16:49:51.008Z,11.20
2022-11-09T16:52:14.230Z,11.20
2022-11-09T16:54:35.360Z,11.50
2022-11-09T16:56:56.166Z,11.30
2022-11-09T16:59:19.968Z,11.30
2022-11-09T17:01:40.817Z,11.30
2022-11-09T17:04:01.879Z,11.30
2022-11-09T17:06:22.820Z,11.30
2022-11-09T17:08:45.298Z,11.30
2022-11-09T17:11:08.180Z,11.30
2022-11-09T17:13:28.806Z,11.30
2022-11-09T17:15:56.301Z,11.30
2022-11-09T17:18:17.401Z,11.30
2022-11-09T17:20:42.503Z,11.20
2022-11-09T17:23:09.784Z,11.20
2022-11-09T17:25:35.005Z,11.20
2022-11-09T17:27:56.060Z,11.20
2022-11-09T17:30:17.165Z,11.20
2022-11-09T17:32:40.987Z,11.30
2022-11-09T17:35:05.631Z,11.20
2022-11-09T17:37:26.875Z,11.30
2022-11-09T17:39:51.018Z,11.30
2022-11-09T17:42:11.660Z,11.30
2022-11-09T17:44:34.679Z,11.30
2022-11-09T17:46:55.588Z,11.20
2022-11-09T17:49:23.578Z,11.30
2022-11-09T17:51:44.489Z,11.30
2022-11-09T17:54:05.848Z,11.40
2022-11-09T17:56:26.561Z,11.30
2022-11-09T17:58:47.793Z,11.30
2022-11-09T18:01:11.105Z,11.40
2022-11-09T18:03:32.452Z,11.30
2022-11-09T18:05:58.450Z,11.30
2022-11-09T18:08:19.611Z,11.30
2022-11-09T18:10:45.557Z,11.30
2022-11-09T18:13:09.385Z,11.30
2022-11-09T18:15:36.503Z,11.30
2022-11-09T18:17:57.657Z,11.20
2022-11-09T18:20:21.630Z,11.20
2022-11-09T18:22:45.477Z,11.20
2022-11-09T18:25:07.074Z,11.20
2022-11-09T18:27:31.126Z,11.20
2022-11-09T18:29:59.262Z,11.20
2022-11-09T18:32:20.586Z,11.20
2022-11-09T18:34:41.579Z,11.20
2022-11-09T18:37:03.571Z,11.20
2022-11-09T18:39:27.502Z,11.20
2022-11-09T18:41:48.548Z,11.10
2022-11-09T18:44:10.300Z,11.10
2022-11-09T18:46:33.246Z,11.10
2022-11-09T18:48:57.501Z,11.10
2022-11-09T18:51:21.201Z,11.80
2022-11-09T18:53:44.439Z,11.10
2022-11-09T18:56:18.953Z,11.10
2022-11-09T18:58:39.679Z,11.00
2022-11-09T19:01:03.935Z,11.00
2022-11-09T19:03:25.146Z,11.00
2022-11-09T19:05:47.923Z,11.00
2022-11-09T19:08:08.901Z,10.90
2022-11-09T19:10:32.158Z,10.90
2022-11-09T19:12:57.988Z,10.90
2022-11-09T19:15:22.011Z,10.90
2022-11-09T19:17:45.224Z,10.90
2022-11-09T19:20:06.756Z,10.90
2022-11-09T19:22:30.582Z,10.90
2022-11-09T19:24:51.493Z,10.90
2022-11-09T19:27:12.533Z,10.90
2022-11-09T19:29:36.115Z,10.90
2022-11-09T19:31:56.988Z,10.90
2022-11-09T19:34:20.088Z,10.90
2022-11-09T19:36:43.316Z,10.90
2022-11-09T19:39:04.527Z,10.80
2022-11-09T19:41:26.154Z,10.80
2022-11-09T19:43:49.125Z,10.90
2022-11-09T19:46:12.658Z,11.20
2022-11-09T19:48:35.118Z,10.80
2022-11-09T19:50:56.258Z,10.80
2022-11-09T19:53:17.448Z,10.80
2022-11-09T19:55:38.170Z,10.70
2022-11-09T19:57:58.895Z,10.80
2022-11-09T20:00:20.256Z,10.80
2022-11-09T20:02:43.716Z,10.80
2022-11-09T20:05:05.747Z,10.70
2022-11-09T20:07:29.655Z,10.70
2022-11-09T20:09:50.576Z,10.70
2022-11-09T20:12:30.723Z,10.70
2022-11-09T20:14:52.455Z,10.60
2022-11-09T20:17:13.607Z,10.60
2022-11-09T20:19:37.006Z,10.60
2022-11-09T20:21:58.387Z,10.60
2022-11-09T20:24:19.613Z,10.60
2022-11-09T20:26:41.027Z,10.60
2022-11-09T20:29:01.774Z,10.80
2022-11-09T20:31:23.627Z,10.60
2022-11-09T20:33:44.828Z,10.60
2022-11-09T20:36:09.421Z,11.00
2022-11-09T20:38:30.374Z,10.60
2022-11-09T20:40:55.495Z,10.60
2022-11-09T20:43:16.714Z,10.50
2022-11-09T20:45:37.694Z,10.50
2022-11-09T20:48:10.723Z,10.50
2022-11-09T20:50:39.527Z,10.50
2022-11-09T20:53:04.257Z,10.40
2022-11-09T20:55:25.156Z,10.40
2022-11-09T20:57:47.454Z,10.40
2022-11-09T21:00:10.000Z,10.40
2022-11-09T21:02:30.814Z,10.40
2022-11-09T21:04:51.992Z,10.40
2022-11-09T21:07:13.209Z,10.30
2022-11-09T21:09:37.009Z,10.30
2022-11-09T21:12:16.235Z,10.30
2022-11-09T21:14:36.899Z,10.30
2022-11-09T21:16:58.457Z,10.30
2022-11-09T21:19:19.231Z,10.30
2022-11-09T21:21:40.317Z,10.30
2022-11-09T21:24:20.337Z,10.50
2022-11-09T21:27:02.328Z,10.20
2022-11-09T21:29:43.411Z,10.20
2022-11-09T21:32:05.839Z,10.20
2022-11-09T21:34:27.128Z,10.20
2022-11-09T21:36:50.648Z,10.20
2022-11-09T21:39:11.786Z,10.20
2022-11-09T21:41:38.117Z,10.20
2022-11-09T21:44:04.931Z,10.20
2022-11-09T21:46:26.227Z,10.10
2022-11-09T21:48:47.004Z,10.10
2022-11-09T21:51:08.072Z,10.20
2022-11-09T21:53:28.785Z,10.20
2022-11-09T21:55:49.670Z,10.20
2022-11-09T21:58:10.602Z,10.10
2022-11-09T22:00:34.020Z,10.20
2022-11-09T22:02:55.104Z,10.20
2022-11-09T22:05:21.728Z,10.90
2022-11-09T22:07:43.813Z,10.20
2022-11-09T22:10:10.468Z,10.20
2022-11-09T22:12:50.556Z,10.20
2022-11-09T22:15:30.389Z,10.20
2022-11-09T22:17:56.453Z,10.20
2022-11-09T22:20:36.302Z,10.20
2022-11-09T22:22:59.876Z,10.20
2022-11-09T22:25:20.848Z,10.30
2022-11-09T22:27:41.864Z,10.30
2022-11-09T22:30:04.161Z,10.30
2022-11-09T22:32:27.424Z,10.40
2022-11-09T22:34:51.155Z,10.40
2022-11-09T22:37:11.870Z,10.40
2022-11-09T22:39:32.530Z,10.40
2022-11-09T22:41:56.160Z,10.40
2022-11-09T22:44:17.284Z,10.40
2022-11-09T22:46:38.175Z,10.30
2022-11-09T22:48:59.024Z,10.30
2022-11-09T22:51:22.644Z,10.30
2022-11-09T22:53:47.585Z,10.30
2022-11-09T22:56:10.485Z,10.30
2022-11-09T22:58:34.552Z,10.20
2022-11-09T23:00:55.717Z,10.20
2022-11-09T23:03:20.629Z,10.20
2022-11-09T23:05:42.172Z,10.20
2022-11-09T23:08:06.026Z,10.60
2022-11-09T23:10:26.731Z,10.10
2022-11-09T23:12:47.574Z,10.10
2022-11-09T23:15:13.297Z,10.10
2022-11-09T23:17:54.675Z,10.00
2022-11-09T23:20:16.728Z,10.00
2022-11-09T23:22:37.678Z,10.00
2022-11-09T23:25:20.173Z,10.00
2022-11-09T23:27:43.446Z,9.90
2022-11-09T23:30:05.296Z,9.90
2022-11-09T23:32:26.049Z,9.90
2022-11-09T23:34:46.877Z,9.90
2022-11-09T23:37:07.832Z,9.90
2022-11-09T23:39:28.679Z,9.80
2022-11-09T23:41:52.292Z,9.80
2022-11-09T23:44:13.460Z,9.80
2022-11-09T23:46:34.213Z,9.80
2022-11-09T23:48:55.010Z,9.80
2022-11-09T23:51:20.792Z,9.80
2022-11-09T23:53:41.937Z,9.90
2022-11-09T23:56:04.786Z,10.00
2022-11-09T23:58:28.173Z,9.90
